Time;durP1;ratioP1;P1;durP2;ratioP2;P2;SDS_P1;SDS_P2;PMS_P1;PMS_P2;Temp;Humidity;BMP_temperature;BMP_pressure;BME280_temperature;BME280_humidity;BME280_pressure;Samples;Min_cycle;Max_cycle;Signal;HPM_P1;HPM_P2
2022/08/29 00:00:09;;;;;;;1.20;0.93;;;;;;;17.06;69.06;100531.66;4916848;29;20473;-49
2022/08/29 00:02:53;;;;;;;1.33;1.20;;;;;;;16.86;69.42;100529.13;4917144;29;20445;-47
2022/08/29 00:05:23;;;;;;;11.07;1.07;;;;;;;16.75;69.08;100537.72;4916827;29;20445;-49
2022/08/29 00:07:51;;;;;;;1.00;0.73;;;;;;;16.81;69.15;100540.09;4916916;29;20456;-48
2022/08/29 00:10:17;;;;;;;0.87;0.80;;;;;;;16.64;69.92;100537.34;4916573;29;20851;-48
2022/08/29 00:12:44;;;;;;;9.63;0.70;;;;;;;16.50;70.30;100527.28;4918529;29;20504;-48
2022/08/29 00:15:13;;;;;;;1.20;0.90;;;;;;;16.55;70.31;100533.28;4916509;29;20476;-48
2022/08/29 00:17:40;;;;;;;5.43;1.10;;;;;;;16.58;70.75;100529.59;4916741;29;20459;-47
2022/08/29 00:20:10;;;;;;;5.53;1.67;;;;;;;16.43;71.13;100533.03;4904273;29;20481;-47
2022/08/29 00:22:36;;;;;;;13.53;1.37;;;;;;;16.51;70.89;100531.72;4916419;29;20544;-48
2022/08/29 00:25:05;;;;;;;1.67;0.63;;;;;;;16.42;71.29;100528.59;4916570;29;20460;-49
2022/08/29 00:27:33;;;;;;;1.33;1.17;;;;;;;16.57;70.75;100534.09;4916348;29;20457;-50
2022/08/29 00:30:00;;;;;;;5.70;0.40;;;;;;;16.39;71.74;100536.81;4916453;29;20485;-48
2022/08/29 00:32:33;;;;;;;0.70;0.43;;;;;;;16.22;72.15;100534.94;4916488;29;20461;-48
2022/08/29 00:35:01;;;;;;;1.03;0.70;;;;;;;16.31;71.80;100534.53;4916313;29;21008;-48
2022/08/29 00:37:27;;;;;;;0.93;0.70;;;;;;;16.08;72.15;100538.28;4916250;29;20461;-48
2022/08/29 00:39:54;;;;;;;1.97;0.63;;;;;;;16.00;72.68;100540.44;4916098;29;20993;-48
2022/08/29 00:42:22;;;;;;;4.03;0.60;;;;;;;16.03;72.47;100544.78;4916330;29;20515;-49
2022/08/29 00:44:48;;;;;;;5.23;0.67;;;;;;;15.78;73.42;100540.59;4916464;29;20449;-47
2022/08/29 00:47:19;;;;;;;0.83;0.57;;;;;;;16.05;73.00;100554.53;4916095;29;20466;-48
2022/08/29 00:49:49;;;;;;;3.90;0.93;;;;;;;16.03;72.86;100547.47;4916254;29;20476;-48
2022/08/29 00:52:31;;;;;;;2.50;0.93;;;;;;;15.83;73.62;100546.59;4916056;29;20457;-46
2022/08/29 00:55:00;;;;;;;4.83;1.17;;;;;;;15.65;74.10;100547.44;4916314;29;20457;-46
2022/08/29 00:57:30;;;;;;;1.10;1.00;;;;;;;15.42;74.44;100551.13;4916507;29;20467;-49
2022/08/29 00:59:58;;;;;;;7.33;1.03;;;;;;;15.62;74.29;100548.47;4916538;29;20473;-46
2022/08/29 01:02:25;;;;;;;0.70;0.50;;;;;;;15.55;73.92;100544.28;4916587;29;20457;-47
2022/08/29 01:04:52;;;;;;;7.03;0.63;;;;;;;15.51;73.66;100542.69;4915657;29;20468;-48
2022/08/29 01:07:19;;;;;;;8.90;0.60;;;;;;;15.52;74.07;100551.59;4916232;29;20453;-47
2022/08/29 01:09:46;;;;;;;0.87;0.50;;;;;;;15.38;74.88;100546.84;4915559;29;20477;-48
2022/08/29 01:12:17;;;;;;;0.80;0.40;;;;;;;15.43;74.60;100546.63;4918079;29;20461;-48
2022/08/29 01:15:00;;;;;;;1.53;0.77;;;;;;;15.30;75.01;100551.66;4915635;29;20492;-48
2022/08/29 01:17:32;;;;;;;0.70;0.57;;;;;;;15.00;75.42;100546.69;4915834;29;20448;-47
2022/08/29 01:20:08;;;;;;;0.83;0.70;;;;;;;15.04;75.19;100547.41;4915873;29;20496;-47
2022/08/29 01:22:56;;;;;;;2.10;0.70;;;;;;;15.11;75.71;100549.78;4909558;29;20449;-47
2022/08/29 01:25:26;;;;;;;17.33;1.23;;;;;;;15.27;75.37;100555.34;4906245;29;20464;-47
2022/08/29 01:28:05;;;;;;;1.03;0.60;;;;;;;15.25;75.89;100556.34;4915486;29;20871;-47
2022/08/29 01:30:31;;;;;;;1.00;0.70;;;;;;;15.03;76.03;100561.75;4915654;29;20487;-47
2022/08/29 01:32:59;;;;;;;2.90;1.40;;;;;;;15.11;76.15;100559.63;4915629;29;20497;-47
2022/08/29 01:35:26;;;;;;;1.03;0.90;;;;;;;14.92;76.53;100558.66;4915743;29;20461;-47
2022/08/29 01:37:53;;;;;;;5.90;0.90;;;;;;;14.87;76.49;100561.53;4915612;29;20463;-47
2022/08/29 01:40:20;;;;;;;1.00;0.70;;;;;;;14.87;76.88;100564.22;4915385;29;20483;-47
2022/08/29 01:42:47;;;;;;;20.23;1.33;;;;;;;14.74;77.37;100563.84;4915751;29;20463;-47
2022/08/29 01:45:13;;;;;;;4.30;1.30;;;;;;;14.65;77.42;100561.53;4915851;29;20454;-47
2022/08/29 01:47:40;;;;;;;3.50;0.87;;;;;;;14.67;77.28;100556.16;4915446;29;20458;-47
2022/08/29 01:50:13;;;;;;;1.67;0.80;;;;;;;14.68;77.57;100549.88;4915551;29;20476;-47
2022/08/29 01:52:41;;;;;;;0.80;0.60;;;;;;;14.55;78.05;100546.81;4904265;29;20444;-47
2022/08/29 01:55:07;;;;;;;2.07;1.00;;;;;;;14.72;77.21;100555.00;4915401;29;20822;-47
2022/08/29 01:57:37;;;;;;;1.07;0.80;;;;;;;14.69;77.70;100549.78;4915599;29;20541;-47
2022/08/29 02:00:06;;;;;;;4.43;0.50;;;;;;;14.66;77.84;100549.91;4915394;29;20500;-48
2022/08/29 02:02:33;;;;;;;1.00;0.40;;;;;;;14.79;77.37;100559.16;4915555;29;20453;-48
2022/08/29 02:05:00;;;;;;;5.13;0.47;;;;;;;14.79;77.32;100564.50;4915324;29;20467;-47
2022/08/29 02:07:28;;;;;;;2.00;0.93;;;;;;;14.70;77.35;100564.91;4915345;29;20461;-47
2022/08/29 02:09:54;;;;;;;1.03;0.87;;;;;;;14.44;78.10;100571.31;4915507;29;20488;-49
2022/08/29 02:12:21;;;;;;;7.13;0.80;;;;;;;14.52;78.18;100568.31;4917434;29;20464;-47
2022/08/29 02:14:49;;;;;;;0.80;0.50;;;;;;;14.57;78.16;100568.16;4915288;29;20500;-46
2022/08/29 02:17:16;;;;;;;0.80;0.70;;;;;;;14.50;78.36;100570.19;4915326;29;20919;-47
2022/08/29 02:19:42;;;;;;;0.80;0.77;;;;;;;14.35;78.86;100578.78;4915358;29;20492;-47
2022/08/29 02:22:09;;;;;;;2.23;0.80;;;;;;;14.32;78.73;100570.91;4916017;29;20453;-48
2022/08/29 02:24:36;;;;;;;1.70;0.80;;;;;;;14.21;79.47;100573.97;4918744;29;20994;-47
2022/08/29 02:27:03;;;;;;;0.93;0.60;;;;;;;14.14;79.62;100569.81;4918616;29;20985;-47
2022/08/29 02:29:30;;;;;;;4.40;0.70;;;;;;;14.27;80.00;100579.09;4918508;29;20485;-47
2022/08/29 02:32:10;;;;;;;2.87;0.70;;;;;;;14.23;79.47;100578.34;4918692;29;20476;-48
2022/08/29 02:34:37;;;;;;;0.87;0.60;;;;;;;14.06;80.24;100575.44;4918222;29;20504;-47
2022/08/29 02:37:04;;;;;;;4.87;1.07;;;;;;;13.98;80.21;100576.66;4918768;29;20465;-47
2022/08/29 02:39:31;;;;;;;15.50;1.30;;;;;;;14.01;80.14;100579.25;4918486;29;20476;-50
2022/08/29 02:41:57;;;;;;;8.10;1.40;;;;;;;13.80;80.58;100576.44;4918488;29;20457;-49
2022/08/29 02:44:24;;;;;;;1.93;0.67;;;;;;;14.03;80.03;100572.03;4918904;29;20449;-49
2022/08/29 02:46:50;;;;;;;0.80;0.67;;;;;;;14.00;79.83;100575.69;4918318;29;20453;-47
2022/08/29 02:49:17;;;;;;;0.57;0.37;;;;;;;13.84;80.64;100578.09;4917939;29;20477;-48
2022/08/29 02:51:44;;;;;;;1.00;0.80;;;;;;;13.93;80.71;100582.19;4918360;29;20472;-48
2022/08/29 02:54:11;;;;;;;3.97;1.07;;;;;;;13.91;80.83;100578.72;4905618;29;21035;-48
2022/08/29 02:56:39;;;;;;;2.00;0.70;;;;;;;13.92;81.25;100577.78;4918242;29;20453;-49
2022/08/29 02:59:07;;;;;;;10.07;1.33;;;;;;;13.77;81.11;100573.00;4918169;29;20477;-49
2022/08/29 03:01:37;;;;;;;1.30;0.60;;;;;;;13.78;81.40;100572.94;4917868;29;20544;-48
2022/08/29 03:04:04;;;;;;;0.80;0.50;;;;;;;13.80;81.34;100575.56;4918333;29;20446;-48
2022/08/29 03:06:31;;;;;;;1.47;0.77;;;;;;;13.68;81.25;100576.88;4918033;29;20463;-48
2022/08/29 03:08:57;;;;;;;0.60;0.40;;;;;;;13.81;80.89;100575.50;4911906;29;21048;-47
2022/08/29 03:11:24;;;;;;;0.70;0.60;;;;;;;13.75;81.82;100573.06;4915736;29;20827;-49
2022/08/29 03:13:50;;;;;;;1.00;0.57;;;;;;;13.76;81.54;100573.94;4918382;29;20519;-48
2022/08/29 03:16:22;;;;;;;1.00;0.90;;;;;;;13.76;82.08;100572.13;4917887;29;20944;-49
2022/08/29 03:18:49;;;;;;;2.40;0.70;;;;;;;13.87;81.44;100569.06;4917929;29;20480;-47
2022/08/29 03:21:21;;;;;;;0.90;0.57;;;;;;;13.95;81.24;100564.28;4917790;29;20457;-48
2022/08/29 03:23:48;;;;;;;0.73;0.73;;;;;;;13.93;81.58;100561.69;4917804;29;20459;-47
2022/08/29 03:26:15;;;;;;;9.90;0.70;;;;;;;13.88;82.02;100568.13;4917601;29;20969;-48
2022/08/29 03:28:42;;;;;;;0.70;0.60;;;;;;;13.83;81.99;100560.28;4917578;29;20503;-48
2022/08/29 03:31:09;;;;;;;1.23;0.80;;;;;;;13.96;81.93;100566.03;4917493;29;20461;-48
2022/08/29 03:33:36;;;;;;;22.93;1.10;;;;;;;14.06;81.34;100559.41;4917221;29;20599;-49
2022/08/29 03:36:04;;;;;;;1.70;1.60;;;;;;;14.02;81.84;100562.28;4917489;29;20947;-47
2022/08/29 03:38:39;;;;;;;0.90;0.63;;;;;;;14.16;82.12;100567.97;4917521;29;20448;-48
2022/08/29 03:41:06;;;;;;;0.50;0.33;;;;;;;14.14;81.31;100567.16;4917157;29;20457;-49
2022/08/29 03:43:33;;;;;;;0.80;0.73;;;;;;;14.13;81.63;100562.72;4917618;29;20456;-48
2022/08/29 03:45:59;;;;;;;3.30;1.00;;;;;;;14.14;82.14;100570.69;4917382;29;20453;-48
2022/08/29 03:48:26;;;;;;;1.30;0.83;;;;;;;14.29;80.86;100563.00;4917152;29;20467;-47
2022/08/29 03:50:52;;;;;;;4.20;0.60;;;;;;;14.19;80.89;100566.03;4904920;29;20461;-48
2022/08/29 03:53:22;;;;;;;5.20;0.57;;;;;;;14.07;81.69;100558.47;4917158;29;20457;-48
2022/08/29 03:55:48;;;;;;;5.07;1.07;;;;;;;14.15;81.43;100569.75;4917074;29;20464;-48
2022/08/29 03:58:15;;;;;;;0.60;0.40;;;;;;;14.16;81.36;100570.63;4917210;29;20457;-48
2022/08/29 04:00:41;;;;;;;3.60;0.80;;;;;;;14.16;81.31;100565.28;4917220;29;20508;-48
2022/08/29 04:03:08;;;;;;;0.50;0.40;;;;;;;14.37;80.38;100572.44;4917151;29;20452;-49
2022/08/29 04:05:35;;;;;;;0.97;0.87;;;;;;;14.10;81.28;100573.53;4916782;29;20524;-49
2022/08/29 04:08:02;;;;;;;4.00;1.23;;;;;;;14.20;81.29;100574.91;4916863;29;20467;-48
2022/08/29 04:10:33;;;;;;;3.33;1.17;;;;;;;14.20;81.21;100564.22;4916756;29;20480;-48
2022/08/29 04:13:00;;;;;;;1.30;0.40;;;;;;;14.08;81.98;100568.25;4918775;29;20449;-48
2022/08/29 04:15:27;;;;;;;1.20;1.00;;;;;;;14.11;82.25;100567.25;4916838;29;20493;-48
2022/08/29 04:17:56;;;;;;;0.70;0.43;;;;;;;14.14;82.69;100565.34;4916693;29;20461;-48
2022/08/29 04:20:26;;;;;;;5.63;0.63;;;;;;;14.13;82.19;100560.94;4916630;29;20560;-47
2022/08/29 04:22:55;;;;;;;2.30;0.60;;;;;;;14.19;82.02;100559.81;4916485;29;20985;-47
2022/08/29 04:25:23;;;;;;;0.50;0.40;;;;;;;14.17;82.32;100570.56;4916766;29;20457;-48
2022/08/29 04:27:50;;;;;;;1.03;0.80;;;;;;;14.19;82.50;100570.50;4916634;29;20806;-47
2022/08/29 04:30:20;;;;;;;2.70;0.87;;;;;;;15.00;79.12;100567.25;4916484;29;20485;-47
2022/08/29 04:32:46;;;;;;;2.10;1.13;;;;;;;14.52;80.21;100571.84;4946756;29;20487;-48
2022/08/29 04:35:14;;;;;;;1.10;0.97;;;;;;;14.32;80.82;100574.44;4916195;29;20492;-47
2022/08/29 04:37:42;;;;;;;0.93;0.60;;;;;;;14.33;81.01;100576.19;4916585;29;20453;-47
2022/08/29 04:40:16;;;;;;;1.53;1.43;;;;;;;14.32;81.41;100579.78;4916355;29;20469;-48
2022/08/29 04:42:45;;;;;;;3.27;1.53;;;;;;;14.33;81.26;100578.84;4916528;29;20472;-47
2022/08/29 04:45:16;;;;;;;11.73;0.53;;;;;;;14.29;81.35;100579.91;4914734;29;20453;-47
2022/08/29 04:47:44;;;;;;;10.43;1.20;;;;;;;14.25;81.12;100583.63;4904048;29;20453;-47
2022/08/29 04:50:14;;;;;;;0.70;0.50;;;;;;;14.18;81.83;100587.47;4916219;29;20483;-47
2022/08/29 04:52:42;;;;;;;9.50;2.07;;;;;;;14.22;81.88;100583.75;4916462;29;20453;-47
2022/08/29 04:55:10;;;;;;;4.63;1.57;;;;;;;14.23;81.97;100593.50;4916301;29;20496;-48
2022/08/29 04:57:37;;;;;;;1.00;0.53;;;;;;;14.26;82.14;100584.53;4916312;29;20457;-47
2022/08/29 05:00:10;;;;;;;1.63;0.80;;;;;;;14.37;81.63;100577.78;4916066;29;20479;-48
2022/08/29 05:02:38;;;;;;;1.80;1.70;;;;;;;14.21;81.94;100584.69;4916145;29;20468;-48
2022/08/29 05:05:06;;;;;;;0.70;0.50;;;;;;;14.14;82.59;100580.50;4916099;29;20441;-47
2022/08/29 05:07:33;;;;;;;5.50;0.70;;;;;;;14.55;81.74;100580.72;4916318;29;20509;-47
2022/08/29 05:10:08;;;;;;;2.20;0.70;;;;;;;14.52;80.95;100593.25;4916116;29;20540;-47
2022/08/29 05:12:36;;;;;;;1.47;1.23;;;;;;;14.77;80.39;100587.78;4918459;29;20450;-47
2022/08/29 05:15:04;;;;;;;9.90;0.73;;;;;;;14.93;80.07;100598.72;4915735;29;20493;-48
2022/08/29 05:17:31;;;;;;;3.60;1.60;;;;;;;15.26;79.54;100592.91;4916294;29;20549;-49
2022/08/29 05:19:58;;;;;;;2.63;1.63;;;;;;;15.26;78.87;100595.59;4916270;29;20476;-47
2022/08/29 05:22:25;;;;;;;5.33;2.27;;;;;;;15.31;79.77;100596.25;4916082;29;20512;-48
2022/08/29 05:24:52;;;;;;;37.13;1.50;;;;;;;15.85;77.81;100590.28;4916873;29;20480;-48
2022/08/29 05:27:21;;;;;;;1.43;0.77;;;;;;;16.30;75.92;100589.09;4916312;29;20463;-49
2022/08/29 05:29:50;;;;;;;1.63;1.53;;;;;;;16.71;74.04;100586.25;4903685;29;20489;-48
2022/08/29 05:32:18;;;;;;;9.07;0.80;;;;;;;17.14;72.24;100596.63;4916080;29;20453;-48
2022/08/29 05:34:46;;;;;;;1.00;0.87;;;;;;;17.58;70.67;100588.06;4915741;29;20497;-48
2022/08/29 05:37:15;;;;;;;0.90;0.80;;;;;;;17.81;69.15;100600.31;4915662;29;20955;-49
2022/08/29 05:39:42;;;;;;;0.63;0.63;;;;;;;17.91;68.42;100595.31;4915671;29;20846;-48
2022/08/29 05:42:10;;;;;;;0.97;0.90;;;;;;;17.79;69.27;100601.34;4915625;29;20461;-48
2022/08/29 05:44:38;;;;;;;0.87;0.83;;;;;;;18.40;67.14;100593.50;4915906;29;20533;-49
2022/08/29 05:47:07;;;;;;;0.70;0.60;;;;;;;18.49;66.53;100595.66;4915777;29;20463;-48
2022/08/29 05:49:36;;;;;;;5.77;1.00;;;;;;;18.71;65.47;100597.16;4915778;29;20477;-48
2022/08/29 05:52:03;;;;;;;3.63;1.70;;;;;;;19.00;64.47;100604.44;4915735;29;20830;-48
2022/08/29 05:54:33;;;;;;;1.50;1.40;;;;;;;19.18;63.99;100597.06;4915746;29;20499;-48
2022/08/29 05:56:59;;;;;;;4.20;1.77;;;;;;;19.14;64.09;100599.09;4917744;29;20508;-47
2022/08/29 05:59:26;;;;;;;1.90;0.83;;;;;;;18.88;64.25;100607.81;4919328;29;20477;-47
2022/08/29 06:01:52;;;;;;;4.33;0.83;;;;;;;18.85;65.22;100602.63;4919219;29;20455;-47
2022/08/29 06:04:19;;;;;;;1.93;0.80;;;;;;;18.87;65.90;100603.41;4919343;29;20859;-48
2022/08/29 06:06:45;;;;;;;1.53;0.90;;;;;;;18.56;67.11;100601.56;4918962;29;20934;-47
2022/08/29 06:09:12;;;;;;;0.70;0.70;;;;;;;18.53;67.48;100609.81;4919217;29;20480;-47
2022/08/29 06:11:39;;;;;;;2.70;1.00;;;;;;;18.78;65.63;100607.50;4921489;29;20457;-47
2022/08/29 06:14:05;;;;;;;7.53;1.10;;;;;;;18.60;66.90;100603.13;4919172;29;20493;-49
2022/08/29 06:16:32;;;;;;;2.53;0.87;;;;;;;18.72;67.37;100624.00;4918997;29;20520;-47
2022/08/29 06:18:59;;;;;;;4.73;1.80;;;;;;;18.60;68.16;100624.66;4918948;29;20484;-48
2022/08/29 06:21:25;;;;;;;2.60;1.23;;;;;;;18.76;67.99;100625.56;4917726;29;20448;-48
2022/08/29 06:23:52;;;;;;;6.20;0.70;;;;;;;18.69;68.03;100623.31;4919089;29;20464;-48
2022/08/29 06:26:18;;;;;;;5.30;1.10;;;;;;;18.74;67.45;100627.47;4919011;29;20471;-47
2022/08/29 06:28:46;;;;;;;1.20;0.83;;;;;;;19.12;66.13;100633.34;4918834;29;20487;-48
2022/08/29 06:31:25;;;;;;;0.60;0.50;;;;;;;19.09;66.21;100632.66;4918598;29;20471;-48
2022/08/29 06:33:54;;;;;;;3.30;1.13;;;;;;;18.96;66.64;100629.81;4918607;29;20923;-47
2022/08/29 06:36:21;;;;;;;1.53;1.37;;;;;;;19.24;66.31;100632.63;4918582;29;20461;-48
2022/08/29 06:38:48;;;;;;;3.77;1.10;;;;;;;18.98;66.29;100638.69;4918616;29;20479;-47
2022/08/29 06:41:16;;;;;;;3.50;0.67;;;;;;;19.03;67.01;100633.88;4918571;29;20453;-47
2022/08/29 06:43:43;;;;;;;8.03;1.07;;;;;;;19.74;65.00;100636.00;4918447;29;20500;-49
2022/08/29 06:46:19;;;;;;;4.30;1.27;;;;;;;19.37;65.37;100632.78;4918549;29;20456;-48
2022/08/29 06:48:45;;;;;;;1.73;0.73;;;;;;;19.57;65.11;100634.31;4918180;29;20477;-47
2022/08/29 06:51:12;;;;;;;12.73;2.00;;;;;;;19.93;63.38;100630.34;4918544;29;20461;-47
2022/08/29 06:53:38;;;;;;;7.97;1.27;;;;;;;19.89;64.00;100634.19;4918491;29;20464;-48
2022/08/29 06:56:06;;;;;;;3.27;1.17;;;;;;;20.35;62.74;100633.03;4918229;29;20921;-48
2022/08/29 06:58:37;;;;;;;7.60;1.23;;;;;;;20.63;61.84;100629.47;4918177;29;20512;-48
2022/08/29 07:01:07;;;;;;;13.30;0.80;;;;;;;20.38;61.58;100631.97;4918164;29;20459;-49
2022/08/29 07:03:34;;;;;;;1.90;0.87;;;;;;;20.06;62.83;100636.69;4918271;29;20461;-48
2022/08/29 07:06:00;;;;;;;1.10;0.73;;;;;;;20.68;59.56;100631.84;4918305;29;20540;-48
2022/08/29 07:08:27;;;;;;;4.83;0.83;;;;;;;20.29;59.89;100633.44;4917423;29;20853;-48
2022/08/29 07:10:53;;;;;;;1.73;1.50;;;;;;;20.43;59.47;100639.81;4918114;29;20461;-48
2022/08/29 07:13:20;;;;;;;1.27;0.40;;;;;;;20.47;59.17;100647.63;4919742;29;20457;-48
2022/08/29 07:15:46;;;;;;;3.37;1.33;;;;;;;20.24;59.14;100640.06;4917936;29;20492;-48
2022/08/29 07:18:13;;;;;;;7.53;0.77;;;;;;;20.39;59.27;100645.38;4918283;29;20479;-48
2022/08/29 07:20:39;;;;;;;12.00;1.40;;;;;;;20.52;59.45;100639.22;4917818;29;20577;-48
2022/08/29 07:23:07;;;;;;;1.47;1.37;;;;;;;20.54;59.44;100642.69;4917941;29;20453;-48
2022/08/29 07:25:35;;;;;;;1.53;1.43;;;;;;;20.40;58.73;100643.53;4917817;29;20466;-48
2022/08/29 07:28:03;;;;;;;1.10;0.80;;;;;;;20.68;58.57;100637.25;4917646;29;20461;-47
2022/08/29 07:30:29;;;;;;;0.73;0.53;;;;;;;20.89;58.61;100637.69;4917481;29;20509;-48
2022/08/29 07:32:56;;;;;;;4.60;1.67;;;;;;;20.93;58.09;100636.53;4917860;29;20943;-49
2022/08/29 07:35:23;;;;;;;4.90;0.83;;;;;;;20.90;57.83;100634.03;4918097;29;20501;-48
2022/08/29 07:38:02;;;;;;;0.90;0.50;;;;;;;21.14;57.53;100640.50;4918492;29;20453;-48
2022/08/29 07:40:29;;;;;;;11.63;1.00;;;;;;;21.25;57.25;100632.59;4917651;29;20473;-49
2022/08/29 07:42:55;;;;;;;10.43;1.20;;;;;;;21.31;57.22;100628.59;4917581;29;20493;-48
2022/08/29 07:45:22;;;;;;;25.07;1.33;;;;;;;21.32;57.64;100622.22;4917539;29;20483;-49
2022/08/29 07:47:48;;;;;;;7.90;1.10;;;;;;;21.17;57.43;100631.31;4917651;29;20449;-48
2022/08/29 07:50:15;;;;;;;21.73;1.70;;;;;;;21.14;57.54;100627.00;4917285;29;20508;-48
2022/08/29 07:52:42;;;;;;;6.20;0.90;;;;;;;21.25;57.51;100626.31;4917538;29;20483;-48
2022/08/29 07:55:09;;;;;;;0.80;0.70;;;;;;;21.43;56.98;100632.31;4917207;29;20860;-48
2022/08/29 07:57:35;;;;;;;1.07;0.87;;;;;;;21.38;56.76;100629.91;4917139;29;20461;-48
2022/08/29 08:00:10;;;;;;;0.93;0.60;;;;;;;21.37;56.97;100627.28;4917136;29;20572;-48
2022/08/29 08:02:37;;;;;;;1.70;1.07;;;;;;;21.53;56.92;100628.88;4917323;29;20449;-48
2022/08/29 08:05:05;;;;;;;2.50;0.83;;;;;;;21.56;56.99;100635.91;4916970;29;20992;-48
2022/08/29 08:07:33;;;;;;;1.23;1.13;;;;;;;21.57;56.73;100630.38;4917003;29;20457;-49
2022/08/29 08:10:01;;;;;;;1.23;0.77;;;;;;;21.75;56.23;100622.81;4916805;29;20477;-48
2022/08/29 08:12:28;;;;;;;20.93;1.50;;;;;;;21.69;55.94;100638.63;4918960;29;20983;-48
2022/08/29 08:14:55;;;;;;;1.00;0.80;;;;;;;22.05;55.76;100633.38;4916891;29;20552;-48
2022/08/29 08:17:22;;;;;;;1.30;0.97;;;;;;;21.88;55.46;100639.94;4916810;29;20951;-48
2022/08/29 08:19:49;;;;;;;1.10;0.60;;;;;;;22.03;55.37;100635.28;4916668;29;20477;-49
2022/08/29 08:22:15;;;;;;;9.03;1.40;;;;;;;22.19;54.31;100632.38;4916658;29;20453;-48
2022/08/29 08:24:42;;;;;;;1.17;0.97;;;;;;;22.39;54.33;100639.09;4916386;29;20457;-47
2022/08/29 08:27:08;;;;;;;3.50;1.03;;;;;;;22.52;53.87;100639.06;4916855;29;20457;-49
2022/08/29 08:29:35;;;;;;;15.33;2.10;;;;;;;22.47;53.37;100642.09;4916600;29;20485;-48
2022/08/29 08:32:01;;;;;;;2.97;0.70;;;;;;;22.69;52.96;100642.28;4916843;29;20464;-48
2022/08/29 08:34:29;;;;;;;1.73;1.40;;;;;;;23.07;52.41;100638.59;4916380;29;20943;-49
2022/08/29 08:36:55;;;;;;;8.90;2.10;;;;;;;22.68;52.80;100635.13;4916371;29;20461;-49
2022/08/29 08:39:21;;;;;;;3.03;0.70;;;;;;;22.87;52.25;100637.38;4916219;29;20559;-50
2022/08/29 08:42:14;;;;;;;2.87;1.50;;;;;;;22.68;52.61;100636.97;4916479;29;20479;-48
2022/08/29 08:44:50;;;;;;;1.13;0.90;;;;;;;22.91;52.58;100641.59;4916635;29;20538;-51
2022/08/29 08:47:31;;;;;;;1.00;0.70;;;;;;;22.75;52.79;100636.41;4916112;29;20837;-51
2022/08/29 08:50:19;;;;;;;4.30;0.70;;;;;;;22.62;52.81;100641.00;4916573;29;20465;-51
2022/08/29 08:52:57;;;;;;;1.37;1.23;;;;;;;22.22;54.11;100636.75;4905182;29;20471;-52
2022/08/29 08:55:43;;;;;;;1.30;1.13;;;;;;;22.39;53.34;100634.53;4916565;29;20571;-51
2022/08/29 08:58:16;;;;;;;1.70;0.93;;;;;;;22.52;53.66;100639.06;4916848;29;20453;-52
2022/08/29 09:00:53;;;;;;;0.80;0.60;;;;;;;22.70;53.10;100640.44;4903608;29;20565;-51
2022/08/29 09:03:38;;;;;;;1.67;1.10;;;;;;;22.73;52.89;100638.34;4916034;29;20539;-52
2022/08/29 09:06:16;;;;;;;0.97;0.80;;;;;;;23.06;52.07;100634.16;4916012;29;20449;-52
2022/08/29 09:08:51;;;;;;;2.77;1.17;;;;;;;23.00;51.76;100645.44;4912255;29;20511;-52
2022/08/29 09:11:33;;;;;;;5.00;1.10;;;;;;;23.05;51.81;100644.16;4916059;29;20448;-52
2022/08/29 09:14:16;;;;;;;1.00;0.83;;;;;;;23.20;51.32;100627.69;4916684;29;20449;-52
2022/08/29 09:16:49;;;;;;;2.70;1.80;;;;;;;22.93;51.92;100638.78;4915797;29;20579;-51
2022/08/29 09:19:16;;;;;;;9.53;1.50;;;;;;;23.39;51.10;100638.88;4916272;29;20915;-52
2022/08/29 09:21:50;;;;;;;2.20;0.93;;;;;;;23.35;51.65;100638.25;4916005;29;20464;-52
2022/08/29 09:24:34;;;;;;;4.17;0.97;;;;;;;23.41;51.19;100636.03;4915993;29;20538;-52
2022/08/29 09:27:01;;;;;;;1.00;0.87;;;;;;;23.43;50.46;100647.63;4915944;29;20449;-52
2022/08/29 09:29:29;;;;;;;6.23;1.07;;;;;;;23.82;50.03;100639.16;4915861;29;20488;-51
2022/08/29 09:32:09;;;;;;;2.40;1.73;;;;;;;23.81;49.37;100640.16;4918823;29;20449;-52
2022/08/29 09:34:43;;;;;;;1.97;0.70;;;;;;;23.68;49.65;100639.38;4920164;29;20789;-51
2022/08/29 09:37:32;;;;;;;5.40;1.93;;;;;;;23.96;49.39;100634.50;4919986;29;20465;-51
2022/08/29 09:40:09;;;;;;;4.10;1.57;;;;;;;23.83;49.94;100638.16;4920136;29;20594;-51
2022/08/29 09:42:40;;;;;;;19.33;1.63;;;;;;;23.78;50.27;100642.25;4950389;29;20452;-52
2022/08/29 09:45:19;;;;;;;1.73;1.47;;;;;;;24.06;49.29;100636.38;4920044;29;20448;-52
2022/08/29 09:47:46;;;;;;;1.27;0.83;;;;;;;24.33;48.88;100637.91;4907842;29;20466;-52
2022/08/29 09:50:20;;;;;;;2.50;1.43;;;;;;;24.52;48.12;100640.84;4920576;29;20477;-52
2022/08/29 09:52:53;;;;;;;2.03;1.00;;;;;;;23.82;48.50;100638.28;4920409;29;20470;-52
2022/08/29 09:55:41;;;;;;;5.57;1.23;;;;;;;23.79;49.03;100638.53;4919885;29;20488;-52
2022/08/29 09:58:17;;;;;;;1.63;1.43;;;;;;;24.02;48.68;100639.47;4919709;29;20484;-52
2022/08/29 10:00:56;;;;;;;8.23;0.80;;;;;;;23.84;48.52;100631.75;4907531;29;20842;-52
2022/08/29 10:03:24;;;;;;;3.67;1.20;;;;;;;24.09;48.29;100629.81;4919348;29;20456;-52
2022/08/29 10:06:14;;;;;;;5.07;1.57;;;;;;;24.33;47.76;100622.47;4919278;29;20457;-52
2022/08/29 10:08:53;;;;;;;2.33;1.23;;;;;;;23.87;47.77;100620.66;4919784;29;20468;-52
2022/08/29 10:11:26;;;;;;;3.40;0.87;;;;;;;24.40;47.47;100623.72;4921143;29;20455;-52
2022/08/29 10:13:56;;;;;;;7.30;0.83;;;;;;;24.50;47.46;100626.53;4919150;29;20835;-52
2022/08/29 10:16:26;;;;;;;2.20;1.27;;;;;;;24.40;46.91;100626.44;4919142;29;20534;-52
2022/08/29 10:19:01;;;;;;;2.20;1.33;;;;;;;24.48;47.17;100629.38;4919041;29;20476;-53
2022/08/29 10:21:46;;;;;;;2.77;1.10;;;;;;;24.64;46.19;100630.84;4919025;29;20448;-52
2022/08/29 10:24:29;;;;;;;3.37;1.57;;;;;;;24.80;45.61;100615.84;4919195;29;20449;-52
2022/08/29 10:27:03;;;;;;;15.53;1.37;;;;;;;24.87;45.17;100621.66;4919275;29;20449;-52
2022/08/29 10:29:38;;;;;;;0.93;0.93;;;;;;;25.07;45.60;100618.16;4918864;29;20491;-52
2022/08/29 10:32:33;;;;;;;1.27;1.10;;;;;;;25.21;45.11;100614.28;4918939;29;20855;-52
2022/08/29 10:35:05;;;;;;;5.23;0.90;;;;;;;25.02;46.01;100617.69;4918628;29;20453;-52
2022/08/29 10:37:41;;;;;;;8.37;1.23;;;;;;;25.14;44.76;100612.22;4918593;29;20491;-52
2022/08/29 10:40:25;;;;;;;7.53;1.20;;;;;;;25.03;44.99;100611.25;4918548;29;20480;-52
2022/08/29 10:43:13;;;;;;;5.10;0.97;;;;;;;25.28;44.97;100607.31;4905708;29;20504;-52
2022/08/29 10:46:11;;;;;;;4.30;1.37;;;;;;;25.13;44.98;100591.44;4917223;29;20975;-52
2022/08/29 10:48:54;;;;;;;4.23;1.13;;;;;;;25.22;44.74;100596.97;4918628;29;20512;-52
2022/08/29 10:52:05;;;;;;;9.37;0.97;;;;;;;25.37;44.98;100602.97;4918602;29;20456;-52
2022/08/29 10:54:50;;;;;;;0.70;0.50;;;;;;;25.71;44.34;100586.47;4918097;29;20453;-51
2022/08/29 10:57:38;;;;;;;1.80;1.00;;;;;;;25.29;44.13;100580.97;4918461;29;20503;-51
2022/08/29 11:00:21;;;;;;;8.63;1.47;;;;;;;25.65;44.15;100585.97;4918274;29;20473;-51
2022/08/29 11:03:09;;;;;;;2.90;0.73;;;;;;;25.22;44.57;100588.81;4918149;29;20463;-51
2022/08/29 11:05:54;;;;;;;3.37;0.80;;;;;;;25.48;44.09;100583.84;4907884;29;20449;-52
2022/08/29 11:08:38;;;;;;;1.40;1.30;;;;;;;25.59;43.87;100580.19;4918170;29;20450;-51
2022/08/29 11:11:04;;;;;;;3.43;1.07;;;;;;;26.11;43.74;100576.50;4919092;29;20456;-51
2022/08/29 11:13:41;;;;;;;2.30;1.53;;;;;;;25.63;43.77;100582.53;4918601;29;20457;-51
2022/08/29 11:16:30;;;;;;;1.27;1.03;;;;;;;25.61;44.15;100578.19;4918151;29;20873;-51
2022/08/29 11:19:07;;;;;;;0.93;0.80;;;;;;;25.79;43.36;100576.63;4918143;29;20473;-52
2022/08/29 11:21:41;;;;;;;3.80;1.30;;;;;;;25.76;43.16;100566.00;4917801;29;20449;-52
2022/08/29 11:24:10;;;;;;;16.43;1.27;;;;;;;26.20;42.88;100575.69;4918171;29;20452;-52
2022/08/29 11:26:47;;;;;;;2.00;1.80;;;;;;;25.57;43.82;100572.16;4905619;29;20833;-51
2022/08/29 11:29:36;;;;;;;1.87;0.73;;;;;;;25.67;43.79;100572.22;4917771;29;20499;-52
2022/08/29 11:32:21;;;;;;;2.03;1.93;;;;;;;25.83;43.55;100572.63;4917644;29;20449;-51
2022/08/29 11:35:05;;;;;;;0.80;0.60;;;;;;;25.59;43.07;100564.72;4906395;29;20453;-52
2022/08/29 11:38:03;;;;;;;5.63;1.10;;;;;;;25.96;43.05;100565.09;4917551;29;20499;-52
2022/08/29 11:40:48;;;;;;;0.80;0.80;;;;;;;25.69;43.28;100565.69;4917439;29;20470;-52